Ana Sayfa
METAR-TAF:

METAR-TAF

Havaalanları :

Balikpapan, Endonezya

Enlem: 01-16-06S, Boylam: 116-53-40E, yükseklik: 4 m

METAR: eksik

Saat: 23:39 (16:39 UTC)

Tahmin

Rapor saat 11:00 UTC de 5 saat ve 39 dakika önce yapıldı.
Ayın 19'si saat 12 UTC'den ayın 20'si saat 18 UTC'ye kadar geçerli Tahmin
Rüzgar doğudan 5 kt
Görüş mesafesi: 9000 m
1800 ft yükseklikte parçalı bulutlu
Dönüşüyor
ayın 19'si saat 15 UTC'den ayın 19'si saat 18 UTC'ye kadar
Rüzgar güneybatıdan 5 kt

TAF: WALL 191100Z 1912/2018 09005KT 9000 SCT018 BECMG 1915/1918 22005KT

4.000'den fazla havaalanı için hava durumu gözlemleri ve tahminleri (METAR ve TAF raporları).

Kullanılabilir istasyonlar harita üzerinde sarı ve kırmızı noktalarla gösterilir.

İstasyonun adını görmek için fareyi noktanın üzerinde gezdirin.

Sonrasında hava gözlem ve tahminlerini görmek için tıklayın.

Haritayı değiştirmek için: yaklaştırmak için siyah artı işaretli yeşil düğmeye ve uzaklaştırmak için de eksi işaretli düğmeye hızla tıklayın; bitişik haritalar için yeşil okları kullanın.


METAR-TAF: